OOCL Hamburg — VRZK9 — position and weather

sailwx.info

Track history (hours):
 
Tides and Currents Weather Stations Pressure Air Temp Water Temp Dewpoint Dewpoint Depression Visibility Wind Speed Wind Dir Waves Ship Positions

OOCL Hamburg

Last reported at 2016-Sep-25 12:00 UTC. Time now 2016-Sep-25 14:06 UTC.
Position N 38°48' W 041°00'.

Length 323 m; beam 42.8 m; draft 14.5 m.

Type: Cargo ship. MMSI: 477702000.

Wind from 230 at 23 knots

Waves 3.5 meters (11 feet), 6 second period

Barometer 1016.4 mb
Air temperature 25.0 ° C
Visibility: greater than 10.8 NM
Dewpoint 22.2 ° C
Water temperature 23.1 ° C

Date/timePositionNaut miles runAvg speedWind from/ knotsBaromVisibWave heightAir tempDewpointWater temp
2016-Sep-25 12:00N 38°48' W 041°00'23419.5 230 / 231016.410.8 3.525.022.223.1
2016-Sep-25 00:00N 38°36' W 046°00'23919.9 220 / 261016.910.8 3.525.022.225.4
2016-Sep-24 12:00N 38°30' W 051°06'25020.8 240 / 311015.910.8 3.527.024.324.6
2016-Sep-24 00:00N 38°18' W 056°24'25120.9 220 / 341017.910.8 2.025.023.627.2
2016-Sep-23 12:00N 37°54' W 061°42'24920.7 220 / 201019.9 5.4 1.525.024.326.6
2016-Sep-23 00:00N 37°24' W 066°54'45211.7 220 / 221018.910.8 1.025.523.428.7
2016-Sep-21 09:33N 36°54' W 076°20'0 0.0
2016-Sep-21 08:32N 36°54' W 076°20'0 0.0
2016-Sep-21 05:32N 36°54' W 076°20'0 0.0
2016-Sep-21 03:29N 36°54' W 076°20'0 0.0
2016-Sep-21 02:32N 36°54' W 076°20'0 0.0
2016-Sep-20 17:32N 36°54' W 076°20'0 0.0
2016-Sep-20 14:32N 36°54' W 076°20'0 0.0
2016-Sep-20 13:32N 36°54' W 076°20'1 0.4
2016-Sep-20 10:33N 36°56' W 076°20'2010.2
2016-Sep-20 08:33N 36°55' W 075°55'1010.3
2016-Sep-20 07:33N 36°49' W 075°44'  
2016-Sep-18 02:33N 32°06' W 080°60'6 5.8
2016-Sep-18 01:33N 32°06' W 081°07'2 2.3
2016-Sep-18 00:31N 32°08' W 081°09'0 0.0
2016-Sep-17 22:31N 32°08' W 081°09'0 0.0
2016-Sep-17 21:31N 32°08' W 081°09'0 0.0
2016-Sep-17 20:28N 32°08' W 081°09'0 0.0
2016-Sep-17 19:16N 32°08' W 081°09'0 0.0
2016-Sep-17 13:31N 32°08' W 081°09'0 0.0
2016-Sep-17 12:31N 32°08' W 081°09'0 0.0
2016-Sep-17 10:31N 32°08' W 081°09'0 0.0
2016-Sep-17 09:31N 32°08' W 081°09'0 0.0
2016-Sep-17 08:31N 32°08' W 081°09'0 0.0
2016-Sep-17 07:31N 32°08' W 081°09'0 0.0
2016-Sep-17 05:31N 32°08' W 081°09'0 0.0
2016-Sep-17 04:31N 32°08' W 081°09'0 0.0
2016-Sep-17 00:31N 32°08' W 081°09'34 4.9
2016-Sep-16 17:33N 31°60' W 080°30'  
Track history (hours):
 
Tides and Currents Weather Stations Pressure Air Temp Water Temp Dewpoint Dewpoint Depression Visibility Wind Speed Wind Dir Waves Ship Positions

OOCL Hamburg

Last reported at 2016-Sep-25 12:00 UTC. Time now 2016-Sep-25 14:06 UTC.
Position N 38°48' W 041°00'.

Length 323 m; beam 42.8 m; draft 14.5 m.

Type: Cargo ship. MMSI: 477702000.

Wind from 230 at 23 knots

Waves 3.5 meters (11 feet), 6 second period

Barometer 1016.4 mb
Air temperature 25.0 ° C
Visibility: greater than 10.8 NM
Dewpoint 22.2 ° C
Water temperature 23.1 ° C

Date/timePositionNaut miles runAvg speedWind from/ knotsBaromVisibWave heightAir tempDewpointWater temp
2016-Sep-25 12:00N 38°48' W 041°00'23419.5 230 / 231016.410.8 3.525.022.223.1
2016-Sep-25 00:00N 38°36' W 046°00'23919.9 220 / 261016.910.8 3.525.022.225.4
2016-Sep-24 12:00N 38°30' W 051°06'25020.8 240 / 311015.910.8 3.527.024.324.6
2016-Sep-24 00:00N 38°18' W 056°24'25120.9 220 / 341017.910.8 2.025.023.627.2
2016-Sep-23 12:00N 37°54' W 061°42'24920.7 220 / 201019.9 5.4 1.525.024.326.6
2016-Sep-23 00:00N 37°24' W 066°54'45211.7 220 / 221018.910.8 1.025.523.428.7
2016-Sep-21 09:33N 36°54' W 076°20'0 0.0
2016-Sep-21 08:32N 36°54' W 076°20'0 0.0
2016-Sep-21 05:32N 36°54' W 076°20'0 0.0
2016-Sep-21 03:29N 36°54' W 076°20'0 0.0
2016-Sep-21 02:32N 36°54' W 076°20'0 0.0
2016-Sep-20 17:32N 36°54' W 076°20'0 0.0
2016-Sep-20 14:32N 36°54' W 076°20'0 0.0
2016-Sep-20 13:32N 36°54' W 076°20'1 0.4
2016-Sep-20 10:33N 36°56' W 076°20'2010.2
2016-Sep-20 08:33N 36°55' W 075°55'1010.3
2016-Sep-20 07:33N 36°49' W 075°44'  
2016-Sep-18 02:33N 32°06' W 080°60'6 5.8
2016-Sep-18 01:33N 32°06' W 081°07'2 2.3
2016-Sep-18 00:31N 32°08' W 081°09'0 0.0
2016-Sep-17 22:31N 32°08' W 081°09'0 0.0
2016-Sep-17 21:31N 32°08' W 081°09'0 0.0
2016-Sep-17 20:28N 32°08' W 081°09'0 0.0
2016-Sep-17 19:16N 32°08' W 081°09'0 0.0
2016-Sep-17 13:31N 32°08' W 081°09'0 0.0
2016-Sep-17 12:31N 32°08' W 081°09'0 0.0
2016-Sep-17 10:31N 32°08' W 081°09'0 0.0
2016-Sep-17 09:31N 32°08' W 081°09'0 0.0
2016-Sep-17 08:31N 32°08' W 081°09'0 0.0
2016-Sep-17 07:31N 32°08' W 081°09'0 0.0
2016-Sep-17 05:31N 32°08' W 081°09'0 0.0
2016-Sep-17 04:31N 32°08' W 081°09'0 0.0
2016-Sep-17 00:31N 32°08' W 081°09'34 4.9
2016-Sep-16 17:33N 31°60' W 080°30'  

Dump ship's entire track history